createdAt,value
2023-02-28T00:01:11.040Z,7.40
2023-02-28T00:03:38.722Z,7.50
2023-02-28T00:06:08.171Z,8.40
2023-02-28T00:08:35.586Z,6.17
2023-02-28T00:11:04.656Z,9.67
2023-02-28T00:13:35.466Z,7.07
2023-02-28T00:16:05.356Z,7.93
2023-02-28T00:18:33.039Z,9.70
2023-02-28T00:21:00.924Z,8.53
2023-02-28T00:23:28.898Z,6.07
2023-02-28T00:25:56.611Z,8.03
2023-02-28T00:28:24.514Z,8.93
2023-02-28T00:30:53.600Z,13.13
2023-02-28T00:33:21.339Z,7.73
2023-02-28T00:35:49.739Z,6.17
2023-02-28T00:38:17.602Z,5.77
2023-02-28T00:40:45.109Z,4.60
2023-02-28T00:43:12.545Z,6.63
2023-02-28T00:45:39.991Z,6.60
2023-02-28T00:48:08.885Z,5.77
2023-02-28T00:50:36.326Z,6.37
2023-02-28T00:53:03.828Z,6.13
2023-02-28T00:55:31.257Z,5.07
2023-02-28T00:57:58.736Z,6.47
2023-02-28T01:00:26.182Z,7.30
2023-02-28T01:02:53.645Z,6.27
2023-02-28T01:05:22.421Z,5.30
2023-02-28T01:07:49.892Z,5.90
2023-02-28T01:10:17.989Z,5.10
2023-02-28T01:12:45.472Z,5.97
2023-02-28T01:15:15.469Z,9.00
2023-02-28T01:17:42.972Z,4.50
2023-02-28T01:20:11.914Z,7.80
2023-02-28T01:22:41.016Z,7.67
2023-02-28T01:25:09.570Z,4.37
2023-02-28T01:27:37.072Z,5.83
2023-02-28T01:30:04.979Z,6.70
2023-02-28T01:32:32.420Z,5.20
2023-02-28T01:34:59.856Z,6.40
2023-02-28T01:37:27.349Z,6.40
2023-02-28T01:39:56.141Z,6.77
2023-02-28T01:42:23.575Z,5.80
2023-02-28T01:45:05.360Z,5.97
2023-02-28T01:47:44.397Z,8.57
2023-02-28T01:50:22.513Z,5.90
2023-02-28T01:52:50.506Z,6.37
2023-02-28T01:55:20.580Z,5.97
2023-02-28T01:57:52.743Z,7.20
2023-02-28T02:00:24.186Z,6.03
2023-02-28T02:02:57.345Z,5.93
2023-02-28T02:05:26.733Z,6.10
2023-02-28T02:07:57.751Z,6.23
2023-02-28T02:10:31.305Z,4.90
2023-02-28T02:13:20.772Z,6.60
2023-02-28T02:15:58.488Z,4.33
2023-02-28T02:18:32.805Z,11.10
2023-02-28T02:21:31.175Z,6.63
2023-02-28T02:24:29.775Z,6.77
2023-02-28T02:27:05.736Z,4.50
2023-02-28T02:30:12.049Z,5.67
2023-02-28T02:33:05.538Z,6.43
2023-02-28T02:35:40.940Z,6.87
2023-02-28T02:38:16.622Z,6.47
2023-02-28T02:40:49.692Z,6.13
2023-02-28T02:43:22.102Z,5.77
2023-02-28T02:45:54.189Z,6.90
2023-02-28T02:48:26.460Z,6.87
2023-02-28T02:50:58.571Z,6.33
2023-02-28T02:53:31.454Z,7.90
2023-02-28T02:56:02.305Z,5.90
2023-02-28T02:58:35.771Z,5.70
2023-02-28T03:01:06.014Z,6.77
2023-02-28T03:03:35.878Z,5.97
2023-02-28T03:06:06.866Z,5.63
2023-02-28T03:08:39.232Z,6.13
2023-02-28T03:11:10.036Z,6.23
2023-02-28T03:13:56.778Z,5.23
2023-02-28T03:16:42.826Z,6.23
2023-02-28T03:19:34.306Z,7.43
2023-02-28T03:22:15.993Z,6.87
2023-02-28T03:24:51.569Z,7.00
2023-02-28T03:27:25.641Z,7.07
2023-02-28T03:29:59.240Z,6.10
2023-02-28T03:32:31.834Z,8.60
2023-02-28T03:35:08.467Z,7.10
2023-02-28T03:37:41.445Z,6.90
2023-02-28T03:40:13.677Z,6.30
2023-02-28T03:42:44.936Z,8.63
2023-02-28T03:45:16.167Z,7.57
2023-02-28T03:47:49.268Z,9.97
2023-02-28T03:50:20.788Z,7.47
2023-02-28T03:52:54.968Z,8.50
2023-02-28T03:55:23.094Z,8.27
2023-02-28T03:58:00.201Z,8.93
2023-02-28T04:00:30.902Z,8.60
2023-02-28T04:02:58.531Z,6.13
2023-02-28T04:05:26.005Z,7.97
2023-02-28T04:07:55.049Z,7.57
2023-02-28T04:10:22.658Z,9.70
2023-02-28T04:12:50.126Z,8.37
2023-02-28T04:15:17.556Z,8.80
2023-02-28T04:17:45.067Z,7.80
2023-02-28T04:20:13.244Z,7.77
2023-02-28T04:22:40.710Z,8.00
2023-02-28T04:25:10.347Z,5.20
2023-02-28T04:27:37.891Z,8.20
2023-02-28T04:30:06.112Z,7.27
2023-02-28T04:32:33.609Z,6.73
2023-02-28T04:35:01.149Z,7.63
2023-02-28T04:37:29.870Z,8.00
2023-02-28T04:39:57.348Z,8.50
2023-02-28T04:42:26.114Z,8.67
2023-02-28T04:44:53.553Z,9.23
2023-02-28T04:47:21.020Z,9.13
2023-02-28T04:49:48.508Z,6.57
2023-02-28T04:52:15.945Z,9.67
2023-02-28T04:54:43.388Z,10.47
2023-02-28T04:57:10.787Z,9.80
2023-02-28T04:59:39.609Z,8.47
2023-02-28T05:02:07.887Z,10.73
2023-02-28T05:04:36.492Z,9.37
2023-02-28T05:07:04.998Z,9.13
2023-02-28T05:09:33.927Z,9.13
2023-02-28T05:12:01.394Z,9.27
2023-02-28T05:14:28.836Z,10.73
2023-02-28T05:16:57.657Z,8.70
2023-02-28T05:19:25.092Z,9.83
2023-02-28T05:21:54.155Z,10.67
2023-02-28T05:24:23.821Z,10.53
2023-02-28T05:26:53.558Z,10.20
2023-02-28T05:29:21.222Z,8.20
2023-02-28T05:31:49.375Z,10.70
2023-02-28T05:34:18.438Z,10.13
2023-02-28T05:36:46.067Z,10.03
2023-02-28T05:39:14.440Z,11.67
2023-02-28T05:41:42.744Z,11.00
2023-02-28T05:44:10.668Z,11.47
2023-02-28T05:46:38.115Z,11.03
2023-02-28T05:49:06.104Z,10.67
2023-02-28T05:51:35.320Z,11.73
2023-02-28T05:54:03.232Z,11.80
2023-02-28T05:56:31.157Z,12.53
2023-02-28T05:58:58.655Z,13.83
2023-02-28T06:01:34.095Z,11.40
2023-02-28T06:04:02.140Z,12.73
2023-02-28T06:06:31.012Z,21.00
2023-02-28T06:08:59.781Z,33.00
2023-02-28T06:11:29.058Z,12.60
2023-02-28T06:13:57.573Z,19.00
2023-02-28T06:16:25.626Z,11.00
2023-02-28T06:18:53.574Z,14.40
2023-02-28T06:21:21.085Z,21.57
2023-02-28T06:23:48.580Z,15.27
2023-02-28T06:26:17.624Z,19.07
2023-02-28T06:28:45.051Z,22.13
2023-02-28T06:31:14.825Z,23.47
2023-02-28T06:33:43.428Z,27.50
2023-02-28T06:36:13.464Z,20.60
2023-02-28T06:38:41.959Z,16.50
2023-02-28T06:41:10.293Z,19.30
2023-02-28T06:43:42.037Z,16.40
2023-02-28T06:46:13.298Z,15.97
2023-02-28T06:48:41.072Z,13.93
2023-02-28T06:51:10.691Z,18.83
2023-02-28T06:53:39.529Z,19.20
2023-02-28T06:56:08.353Z,19.73
2023-02-28T06:58:36.106Z,27.53
2023-02-28T07:01:05.814Z,18.93
2023-02-28T07:03:34.541Z,17.17
2023-02-28T07:06:02.745Z,20.27
2023-02-28T07:08:30.586Z,13.97
2023-02-28T07:10:58.303Z,14.20
2023-02-28T07:13:26.237Z,19.27
2023-02-28T07:15:57.939Z,16.97
2023-02-28T07:18:26.995Z,16.83
2023-02-28T07:20:55.088Z,18.37
2023-02-28T07:23:23.409Z,23.07
2023-02-28T07:25:52.935Z,19.40
2023-02-28T07:28:20.485Z,18.63
2023-02-28T07:30:49.075Z,31.23
2023-02-28T07:33:16.667Z,33.37
2023-02-28T07:35:45.830Z,21.27
2023-02-28T07:38:14.636Z,20.50
2023-02-28T07:40:42.228Z,20.07
2023-02-28T07:43:09.801Z,17.60
2023-02-28T07:45:37.337Z,20.83
2023-02-28T07:48:05.057Z,19.17
2023-02-28T07:50:32.616Z,17.97
2023-02-28T07:53:01.450Z,15.43
2023-02-28T07:55:29.100Z,15.23
2023-02-28T07:57:56.605Z,13.60
2023-02-28T08:00:25.160Z,13.00
2023-02-28T08:02:52.916Z,17.83
2023-02-28T08:05:22.207Z,15.20
2023-02-28T08:07:51.420Z,13.53
2023-02-28T08:10:20.390Z,12.57
2023-02-28T08:12:47.835Z,10.60
2023-02-28T08:15:15.431Z,15.17
2023-02-28T08:17:42.981Z,10.10
2023-02-28T08:20:12.151Z,14.57
2023-02-28T08:22:39.582Z,13.10
2023-02-28T08:25:08.509Z,10.37
2023-02-28T08:27:37.557Z,10.23
2023-02-28T08:30:05.774Z,10.37
2023-02-28T08:32:34.305Z,4.50
2023-02-28T08:35:02.856Z,5.73
2023-02-28T08:37:30.347Z,4.63
2023-02-28T08:39:57.878Z,2.70
2023-02-28T08:42:25.812Z,2.77
2023-02-28T08:44:54.629Z,2.13
2023-02-28T08:47:22.056Z,3.57
2023-02-28T08:49:49.524Z,3.17
2023-02-28T08:52:17.051Z,4.87
2023-02-28T08:54:44.474Z,4.67
2023-02-28T08:57:11.983Z,2.97
2023-02-28T08:59:39.574Z,3.03
2023-02-28T09:02:08.355Z,3.67
2023-02-28T09:04:36.016Z,2.67
2023-02-28T09:07:03.607Z,7.83
2023-02-28T09:09:31.064Z,3.70
2023-02-28T09:11:58.796Z,2.67
2023-02-28T09:14:26.456Z,4.60
2023-02-28T09:16:53.980Z,2.07
2023-02-28T09:19:23.259Z,4.97
2023-02-28T09:21:50.926Z,5.57
2023-02-28T09:24:19.110Z,2.90
2023-02-28T09:26:56.739Z,3.77
2023-02-28T09:29:31.790Z,4.70
2023-02-28T09:31:59.837Z,4.17
2023-02-28T09:34:31.788Z,4.20
2023-02-28T09:36:59.537Z,4.13
2023-02-28T09:39:27.681Z,5.17
2023-02-28T09:41:56.953Z,6.87
2023-02-28T09:44:30.957Z,2.83
2023-02-28T09:47:02.625Z,2.30
2023-02-28T09:49:38.556Z,5.77
2023-02-28T09:52:10.075Z,4.20
2023-02-28T09:54:39.741Z,4.53
2023-02-28T09:57:11.245Z,5.37
2023-02-28T09:59:51.683Z,1.63
2023-02-28T10:02:43.356Z,4.67
2023-02-28T10:05:15.575Z,2.87
2023-02-28T10:08:02.758Z,4.30
2023-02-28T10:10:34.860Z,3.47
2023-02-28T10:13:06.801Z,4.00
2023-02-28T10:15:37.281Z,2.97
2023-02-28T10:18:09.800Z,3.83
2023-02-28T10:20:42.091Z,2.80
2023-02-28T10:23:16.679Z,5.17
2023-02-28T10:25:49.197Z,3.47
2023-02-28T10:28:18.872Z,4.47
2023-02-28T10:30:49.361Z,5.23
2023-02-28T10:33:23.970Z,2.40
2023-02-28T10:35:53.352Z,4.07
2023-02-28T10:38:23.450Z,5.03
2023-02-28T10:40:51.014Z,2.67
2023-02-28T10:43:25.157Z,4.60
2023-02-28T10:46:00.666Z,3.13
2023-02-28T10:48:33.772Z,4.07
2023-02-28T10:51:05.037Z,4.47
2023-02-28T10:53:44.867Z,4.93
2023-02-28T10:56:24.362Z,3.23
2023-02-28T10:58:55.693Z,5.97
2023-02-28T11:01:26.105Z,3.20
2023-02-28T11:03:54.621Z,2.73
2023-02-28T11:06:25.227Z,2.47
2023-02-28T11:08:55.600Z,3.27
2023-02-28T11:11:26.226Z,2.60
2023-02-28T11:13:55.970Z,3.93
2023-02-28T11:16:33.618Z,5.30
2023-02-28T11:19:01.514Z,3.10
2023-02-28T11:21:34.399Z,2.03
2023-02-28T11:24:08.650Z,2.80
2023-02-28T11:26:41.745Z,3.97
2023-02-28T11:29:20.042Z,3.57
2023-02-28T11:32:03.824Z,2.87
2023-02-28T11:34:31.764Z,2.80
2023-02-28T11:37:05.814Z,3.00
2023-02-28T11:39:34.450Z,2.30
2023-02-28T11:42:16.344Z,4.07
2023-02-28T11:45:04.384Z,2.83
2023-02-28T11:47:40.462Z,4.90
2023-02-28T11:50:33.359Z,4.10
2023-02-28T11:53:06.891Z,6.03
2023-02-28T11:55:38.527Z,2.93
2023-02-28T11:58:28.758Z,3.57
2023-02-28T12:01:09.000Z,5.30
2023-02-28T12:03:46.260Z,3.60
2023-02-28T12:06:23.143Z,3.03
2023-02-28T12:09:02.953Z,3.97
2023-02-28T12:11:42.638Z,4.40
2023-02-28T12:14:30.082Z,3.90
2023-02-28T12:17:08.466Z,5.47
2023-02-28T12:19:48.560Z,3.67
2023-02-28T12:22:30.601Z,3.87
2023-02-28T12:25:28.200Z,4.13
2023-02-28T12:27:56.268Z,3.57
2023-02-28T12:30:27.070Z,6.17
2023-02-28T12:32:58.611Z,4.07
2023-02-28T12:35:30.179Z,4.23
2023-02-28T12:38:01.709Z,3.63
2023-02-28T12:40:41.636Z,5.13
2023-02-28T12:43:11.441Z,4.00
2023-02-28T12:45:43.922Z,3.33
2023-02-28T12:48:17.024Z,3.57
2023-02-28T12:50:45.110Z,3.90
2023-02-28T12:53:20.510Z,3.07
2023-02-28T12:55:54.973Z,5.60
2023-02-28T12:58:29.718Z,4.97
2023-02-28T13:01:17.816Z,5.63
2023-02-28T13:04:07.643Z,4.33
2023-02-28T13:06:47.439Z,3.77
2023-02-28T13:09:16.597Z,5.53
2023-02-28T13:11:49.841Z,3.00
2023-02-28T13:14:28.899Z,5.23
2023-02-28T13:17:03.910Z,3.40
2023-02-28T13:19:34.224Z,3.70
2023-02-28T13:22:02.571Z,3.53
2023-02-28T13:24:46.733Z,5.67
2023-02-28T13:27:34.391Z,3.53
2023-02-28T13:30:03.627Z,4.23
2023-02-28T13:32:40.590Z,12.83
2023-02-28T13:35:17.070Z,3.23
2023-02-28T13:37:45.686Z,5.30
2023-02-28T13:40:31.689Z,6.23
2023-02-28T13:43:00.548Z,5.53
2023-02-28T13:45:29.208Z,3.83
2023-02-28T13:48:01.534Z,4.80
2023-02-28T13:50:34.748Z,4.10
2023-02-28T13:53:36.700Z,5.20
2023-02-28T13:56:25.302Z,6.10
2023-02-28T13:58:57.562Z,4.47
2023-02-28T14:01:40.033Z,4.97
2023-02-28T14:04:40.007Z,5.60
2023-02-28T14:07:09.202Z,7.07
2023-02-28T14:09:40.513Z,3.90
2023-02-28T14:12:45.982Z,6.40
2023-02-28T14:15:40.151Z,4.67
2023-02-28T14:18:19.324Z,5.33
2023-02-28T14:20:48.997Z,6.13
2023-02-28T14:23:32.438Z,5.30
2023-02-28T14:26:07.904Z,3.90
2023-02-28T14:28:51.874Z,6.97
2023-02-28T14:31:27.495Z,4.07
2023-02-28T14:34:19.052Z,3.63
2023-02-28T14:36:47.860Z,4.37
2023-02-28T14:39:16.891Z,6.77
2023-02-28T14:41:46.197Z,5.37
2023-02-28T14:44:19.692Z,5.50
2023-02-28T14:46:51.353Z,4.10
2023-02-28T14:49:21.697Z,6.20
2023-02-28T14:51:51.320Z,3.77
2023-02-28T14:54:27.025Z,3.33
2023-02-28T14:56:54.590Z,2.87
2023-02-28T14:59:27.944Z,4.23
2023-02-28T15:02:24.624Z,3.33
2023-02-28T15:04:57.747Z,4.90
2023-02-28T15:07:29.511Z,4.83
2023-02-28T15:10:10.163Z,3.83
2023-02-28T15:12:38.849Z,7.27
2023-02-28T15:15:08.781Z,4.53
2023-02-28T15:17:37.931Z,6.63
2023-02-28T15:20:06.485Z,4.30
2023-02-28T15:22:38.896Z,3.53
2023-02-28T15:25:09.173Z,6.17
2023-02-28T15:27:44.602Z,3.40
2023-02-28T15:30:18.618Z,3.70
2023-02-28T15:33:04.536Z,4.20
2023-02-28T15:35:34.480Z,5.50
2023-02-28T15:38:04.023Z,4.20
2023-02-28T15:40:33.407Z,4.73
2023-02-28T15:43:06.206Z,4.90
2023-02-28T15:45:41.898Z,5.37
2023-02-28T15:48:18.857Z,4.43
2023-02-28T15:50:48.826Z,6.13
2023-02-28T15:53:20.420Z,3.87
2023-02-28T15:55:55.417Z,4.53
2023-02-28T15:58:24.421Z,3.77
2023-02-28T16:01:03.642Z,4.13
2023-02-28T16:03:41.649Z,4.13
2023-02-28T16:06:28.081Z,3.87
2023-02-28T16:08:55.551Z,3.70
2023-02-28T16:11:23.885Z,3.87
2023-02-28T16:13:53.227Z,3.93
2023-02-28T16:16:23.302Z,6.03
2023-02-28T16:18:52.567Z,4.97
2023-02-28T16:21:20.071Z,4.30
2023-02-28T16:23:47.569Z,4.13
2023-02-28T16:26:21.539Z,5.13
2023-02-28T16:28:49.101Z,7.43
2023-02-28T16:31:17.555Z,5.37
2023-02-28T16:33:45.983Z,4.87
2023-02-28T16:36:21.097Z,7.20
2023-02-28T16:38:48.966Z,6.43
2023-02-28T16:41:20.677Z,6.77
2023-02-28T16:43:50.350Z,6.00
2023-02-28T16:46:18.799Z,4.67
2023-02-28T16:48:47.928Z,5.33
2023-02-28T16:51:16.952Z,5.03
2023-02-28T16:53:47.109Z,7.90
2023-02-28T16:56:20.636Z,4.47
2023-02-28T16:58:49.057Z,5.63
2023-02-28T17:01:17.290Z,4.63
2023-02-28T17:03:45.011Z,5.93
2023-02-28T17:06:21.127Z,6.10
2023-02-28T17:08:49.990Z,5.20
2023-02-28T17:11:17.436Z,3.73
2023-02-28T17:13:44.912Z,6.33
2023-02-28T17:16:28.017Z,8.40
2023-02-28T17:18:57.480Z,6.00
2023-02-28T17:21:25.142Z,5.30
2023-02-28T17:23:53.909Z,5.60
2023-02-28T17:26:23.242Z,7.43
2023-02-28T17:28:51.865Z,4.93
2023-02-28T17:31:19.879Z,5.73
2023-02-28T17:33:47.318Z,7.80
2023-02-28T17:36:16.493Z,5.13
2023-02-28T17:38:44.294Z,6.40
2023-02-28T17:41:13.596Z,4.73
2023-02-28T17:43:41.847Z,7.10
2023-02-28T17:46:19.201Z,7.57
2023-02-28T17:48:46.755Z,5.77
2023-02-28T17:51:15.454Z,5.73
2023-02-28T17:53:43.247Z,7.20
2023-02-28T17:56:16.107Z,6.33
2023-02-28T17:58:43.898Z,6.23
2023-02-28T18:01:12.833Z,6.33
2023-02-28T18:03:40.853Z,9.17
2023-02-28T18:06:11.921Z,10.93
2023-02-28T18:08:39.364Z,8.93
2023-02-28T18:11:06.898Z,9.87
2023-02-28T18:13:35.657Z,9.43
2023-02-28T18:16:03.108Z,10.20
2023-02-28T18:18:30.607Z,9.87
2023-02-28T18:20:58.011Z,9.47
2023-02-28T18:23:25.462Z,8.73
2023-02-28T18:25:53.495Z,8.40
2023-02-28T18:28:20.962Z,10.10
2023-02-28T18:30:49.774Z,10.13
2023-02-28T18:33:17.635Z,8.50
2023-02-28T18:35:45.366Z,8.23
2023-02-28T18:38:15.867Z,7.13
2023-02-28T18:40:44.527Z,10.90
2023-02-28T18:43:11.940Z,9.07
2023-02-28T18:45:40.341Z,7.30
2023-02-28T18:48:09.161Z,7.27
2023-02-28T18:50:38.600Z,9.43
2023-02-28T18:53:06.041Z,6.13
2023-02-28T18:55:34.125Z,10.00
2023-02-28T18:58:01.756Z,8.83
2023-02-28T19:00:29.241Z,9.73
2023-02-28T19:02:56.706Z,9.77
2023-02-28T19:05:25.585Z,7.97
2023-02-28T19:07:53.026Z,9.90
2023-02-28T19:10:20.540Z,9.07
2023-02-28T19:12:48.025Z,8.53
2023-02-28T19:15:15.432Z,11.23
2023-02-28T19:17:42.974Z,10.23
2023-02-28T19:20:11.791Z,20.93
2023-02-28T19:22:41.088Z,13.73
2023-02-28T19:25:09.505Z,15.63
2023-02-28T19:27:37.259Z,13.67
2023-02-28T19:30:06.526Z,9.83
2023-02-28T19:32:34.984Z,12.17
2023-02-28T19:35:03.178Z,9.00
2023-02-28T19:37:30.871Z,11.13
2023-02-28T19:39:59.658Z,8.20
2023-02-28T19:42:29.862Z,10.67
2023-02-28T19:44:57.276Z,11.37
2023-02-28T19:47:24.714Z,13.83
2023-02-28T19:49:54.706Z,9.53
2023-02-28T19:52:22.558Z,14.93
2023-02-28T19:54:50.249Z,15.93
2023-02-28T19:57:19.005Z,17.20
2023-02-28T19:59:46.650Z,16.03
2023-02-28T20:02:15.281Z,17.90
2023-02-28T20:04:43.276Z,16.50
2023-02-28T20:07:10.746Z,13.73
2023-02-28T20:09:38.259Z,17.23
2023-02-28T20:12:09.305Z,15.93
2023-02-28T20:14:43.333Z,15.87
2023-02-28T20:17:11.068Z,19.67
2023-02-28T20:19:38.927Z,18.70
2023-02-28T20:22:08.024Z,27.80
2023-02-28T20:24:35.481Z,23.30
2023-02-28T20:27:03.054Z,21.87
2023-02-28T20:29:30.781Z,23.43
2023-02-28T20:31:59.619Z,24.73
2023-02-28T20:34:27.262Z,24.80
2023-02-28T20:36:56.463Z,20.77
2023-02-28T20:39:24.052Z,22.43
2023-02-28T20:41:51.579Z,25.63
2023-02-28T20:44:19.376Z,21.87
2023-02-28T20:46:46.786Z,26.87
2023-02-28T20:49:16.083Z,18.93
2023-02-28T20:51:43.518Z,21.77
2023-02-28T20:54:12.051Z,18.63
2023-02-28T20:56:39.554Z,19.03
2023-02-28T20:59:06.950Z,23.77
2023-02-28T21:01:34.518Z,20.80
2023-02-28T21:04:05.984Z,18.00
2023-02-28T21:06:38.172Z,19.07
2023-02-28T21:09:07.287Z,19.87
2023-02-28T21:11:37.844Z,20.47
2023-02-28T21:14:07.327Z,21.03
2023-02-28T21:16:37.597Z,20.27
2023-02-28T21:19:05.440Z,23.00
2023-02-28T21:21:35.985Z,22.27
2023-02-28T21:24:03.439Z,20.23
2023-02-28T21:26:31.611Z,22.23
2023-02-28T21:29:01.664Z,19.80
2023-02-28T21:31:32.109Z,21.10
2023-02-28T21:34:01.919Z,20.07
2023-02-28T21:36:33.012Z,21.53
2023-02-28T21:39:07.789Z,20.97
2023-02-28T21:41:35.742Z,28.37
2023-02-28T21:44:03.322Z,20.60
2023-02-28T21:46:32.188Z,24.20
2023-02-28T21:48:59.887Z,22.17
2023-02-28T21:51:31.010Z,29.17
2023-02-28T21:53:59.658Z,23.77
2023-02-28T21:56:30.686Z,21.67
2023-02-28T21:59:01.155Z,21.13
2023-02-28T22:01:32.314Z,22.50
2023-02-28T22:04:00.558Z,21.57
2023-02-28T22:06:30.366Z,21.93
2023-02-28T22:09:00.519Z,26.03
2023-02-28T22:11:30.051Z,21.10
2023-02-28T22:13:58.963Z,21.90
2023-02-28T22:16:33.187Z,23.07
2023-02-28T22:19:07.452Z,27.00
2023-02-28T22:21:35.617Z,29.70
2023-02-28T22:24:03.878Z,20.23
2023-02-28T22:26:33.151Z,23.10
2023-02-28T22:29:01.138Z,18.10
2023-02-28T22:31:31.305Z,32.57
2023-02-28T22:34:01.369Z,20.63
2023-02-28T22:36:30.204Z,18.23
2023-02-28T22:39:00.707Z,20.10
2023-02-28T22:41:28.854Z,22.33
2023-02-28T22:44:00.783Z,21.87
2023-02-28T22:46:31.183Z,25.30
2023-02-28T22:48:59.673Z,25.13
2023-02-28T22:51:28.434Z,24.63
2023-02-28T22:53:58.141Z,28.47
2023-02-28T22:56:27.669Z,35.97
2023-02-28T22:58:58.103Z,29.57
2023-02-28T23:01:27.266Z,32.07
2023-02-28T23:03:55.801Z,35.97
2023-02-28T23:06:25.313Z,29.37
2023-02-28T23:08:54.566Z,35.73
2023-02-28T23:11:24.702Z,35.43
2023-02-28T23:13:59.275Z,41.20
2023-02-28T23:16:31.361Z,38.40
2023-02-28T23:19:00.720Z,43.77
2023-02-28T23:21:28.930Z,38.10
2023-02-28T23:23:56.709Z,31.50
2023-02-28T23:26:24.690Z,32.80
2023-02-28T23:28:52.123Z,29.40
2023-02-28T23:31:19.606Z,29.57
2023-02-28T23:33:48.359Z,27.93
2023-02-28T23:36:17.740Z,26.37
2023-02-28T23:38:48.107Z,32.53
2023-02-28T23:41:15.918Z,30.90
2023-02-28T23:43:43.746Z,26.00
2023-02-28T23:46:12.698Z,20.13
2023-02-28T23:48:40.829Z,27.97
2023-02-28T23:51:13.594Z,41.57
2023-02-28T23:53:43.662Z,38.23
2023-02-28T23:56:14.658Z,35.53
2023-02-28T23:58:42.796Z,28.93
